Time;durP1;ratioP1;P1;durP2;ratioP2;P2;SDS_P1;SDS_P2;PMS_P1;PMS_P2;Temp;Humidity;BMP_temperature;BMP_pressure;BME280_temperature;BME280_humidity;BME280_pressure;Samples;Min_cycle;Max_cycle;Signal;HPM_P1;HPM_P2
2022/09/12 00:00:24;;;;;;;;;;;;;;;;;;6211783;23;20375;-71
2022/09/12 00:02:50;;;;;;;;;;;;;;;;;;6210163;23;19918;-73
2022/09/12 00:05:15;;;;;;;;;;;;;;;;;;6210981;23;19916;-73
2022/09/12 00:07:41;;;;;;;;;;;;;;;;;;6211320;23;19998;-73
2022/09/12 00:10:07;;;;;;;;;;;;;;;;;;6209717;23;20335;-73
2022/09/12 00:12:33;;;;;;;;;;;;;;;;;;6209739;23;20525;-73
2022/09/12 00:14:58;;;;;;;;;;;;;;;;;;6235024;23;19975;-73
2022/09/12 00:17:24;;;;;;;;;;;;;;;;;;6210684;23;19912;-74
2022/09/12 00:19:49;;;;;;;;;;;;;;;;;;6211698;23;19919;-74
2022/09/12 00:22:15;;;;;;;;;;;;;;;;;;6211220;23;19969;-72
2022/09/12 00:24:41;;;;;;;;;;;;;;;;;;6211261;23;19919;-74
2022/09/12 00:27:06;;;;;;;;;;;;;;;;;;6210782;23;19963;-74
2022/09/12 00:29:32;;;;;;;;;;;;;;;;;;6209612;23;20352;-73
2022/09/12 00:31:57;;;;;;;;;;;;;;;;;;6211216;23;19943;-73
2022/09/12 00:34:23;;;;;;;;;;;;;;;;;;6209354;23;19916;-73
2022/09/12 00:36:49;;;;;;;;;;;;;;;;;;6211343;23;19944;-73
2022/09/12 00:39:15;;;;;;;;;;;;;;;;;;6210488;23;19927;-73
2022/09/12 00:41:41;;;;;;;;;;;;;;;;;;6209557;23;20053;-74
2022/09/12 00:44:06;;;;;;;;;;;;;;;;;;6210861;23;20356;-74
2022/09/12 00:46:32;;;;;;;;;;;;;;;;;;6209412;23;19940;-72
2022/09/12 00:48:58;;;;;;;;;;;;;;;;;;6210880;23;19911;-73
2022/09/12 00:51:23;;;;;;;;;;;;;;;;;;6184179;23;19922;-74
2022/09/12 00:53:49;;;;;;;;;;;;;;;;;;6209217;23;20338;-73
2022/09/12 00:56:14;;;;;;;;;;;;;;;;;;6210630;23;19916;-73
2022/09/12 00:58:40;;;;;;;;;;;;;;;;;;6209138;23;19920;-73
2022/09/12 01:01:05;;;;;;;;;;;;;;;;;;6208884;23;19911;-73
2022/09/12 01:03:31;;;;;;;;;;;;;;;;;;6209190;23;19911;-73
2022/09/12 01:05:57;;;;;;;;;;;;;;;;;;6211306;23;19994;-73
2022/09/12 01:08:22;;;;;;;;;;;;;;;;;;6208937;23;19908;-73
2022/09/12 01:10:48;;;;;;;;;;;;;;;;;;6209419;23;19912;-73
2022/09/12 01:13:13;;;;;;;;;;;;;;;;;;6158854;23;20315;-73
2022/09/12 01:15:39;;;;;;;;;;;;;;;;;;6234662;23;19912;-73
2022/09/12 01:18:06;;;;;;;;;;;;;;;;;;6210275;23;19919;-72
2022/09/12 01:20:32;;;;;;;;;;;;;;;;;;6210866;23;19974;-72
2022/09/12 01:22:57;;;;;;;;;;;;;;;;;;6234125;23;19920;-74
2022/09/12 01:25:23;;;;;;;;;;;;;;;;;;6208664;23;19916;-73
2022/09/12 01:27:49;;;;;;;;;;;;;;;;;;6210564;23;19912;-72
2022/09/12 01:30:14;;;;;;;;;;;;;;;;;;6208950;23;20442;-72
2022/09/12 01:32:40;;;;;;;;;;;;;;;;;;6208982;23;20007;-74
2022/09/12 01:35:06;;;;;;;;;;;;;;;;;;6210310;23;19942;-73
2022/09/12 01:37:33;;;;;;;;;;;;;;;;;;6210720;23;19958;-73
2022/09/12 01:39:58;;;;;;;;;;;;;;;;;;6209238;23;20319;-74
2022/09/12 01:42:24;;;;;;;;;;;;;;;;;;6210178;23;20366;-74
2022/09/12 01:44:50;;;;;;;;;;;;;;;;;;6234374;23;19962;-73
2022/09/12 01:47:15;;;;;;;;;;;;;;;;;;6210291;23;19959;-72
2022/09/12 01:49:41;;;;;;;;;;;;;;;;;;6234135;23;19920;-71
2022/09/12 01:52:06;;;;;;;;;;;;;;;;;;6210579;23;20344;-74
2022/09/12 01:54:32;;;;;;;;;;;;;;;;;;6213785;23;20357;-74
2022/09/12 01:56:57;;;;;;;;;;;;;;;;;;6214249;23;19947;-74
2022/09/12 01:59:23;;;;;;;;;;;;;;;;;;6210751;23;20349;-74
2022/09/12 02:01:49;;;;;;;;;;;;;;;;;;6211160;23;19936;-73
2022/09/12 02:04:15;;;;;;;;;;;;;;;;;;6211913;23;20349;-74
2022/09/12 02:06:40;;;;;;;;;;;;;;;;;;6210983;23;20400;-73
2022/09/12 02:09:06;;;;;;;;;;;;;;;;;;6212496;23;19965;-74
2022/09/12 02:11:31;;;;;;;;;;;;;;;;;;6210857;23;19942;-73
2022/09/12 02:13:57;;;;;;;;;;;;;;;;;;6212504;23;20265;-75
2022/09/12 02:16:23;;;;;;;;;;;;;;;;;;6185879;23;19924;-73
2022/09/12 02:18:48;;;;;;;;;;;;;;;;;;6237808;23;19976;-75
2022/09/12 02:21:14;;;;;;;;;;;;;;;;;;6217397;23;20264;-75
2022/09/12 02:23:39;;;;;;;;;;;;;;;;;;6212171;23;19912;-74
2022/09/12 02:26:05;;;;;;;;;;;;;;;;;;6212355;23;19912;-73
2022/09/12 02:28:31;;;;;;;;;;;;;;;;;;6210096;23;20348;-73
2022/09/12 02:30:57;;;;;;;;;;;;;;;;;;6212700;23;19923;-74
2022/09/12 02:33:23;;;;;;;;;;;;;;;;;;6211817;23;19916;-75
2022/09/12 02:35:48;;;;;;;;;;;;;;;;;;6212105;23;19986;-75
2022/09/12 02:38:14;;;;;;;;;;;;;;;;;;6185241;23;19912;-73
2022/09/12 02:40:39;;;;;;;;;;;;;;;;;;6185372;23;19974;-73
2022/09/12 02:43:05;;;;;;;;;;;;;;;;;;6211760;23;19935;-72
2022/09/12 02:45:33;;;;;;;;;;;;;;;;;;6185572;23;19916;-74
2022/09/12 02:47:58;;;;;;;;;;;;;;;;;;6212196;23;19935;-72
2022/09/12 02:50:24;;;;;;;;;;;;;;;;;;6212237;23;20342;-74
2022/09/12 02:52:49;;;;;;;;;;;;;;;;;;6186766;23;19912;-73
2022/09/12 02:55:15;;;;;;;;;;;;;;;;;;6213946;23;19916;-73
2022/09/12 02:57:40;;;;;;;;;;;;;;;;;;6215646;23;20348;-74
2022/09/12 03:00:06;;;;;;;;;;;;;;;;;;6211488;23;19920;-73
2022/09/12 03:02:32;;;;;;;;;;;;;;;;;;6209470;23;19939;-73
2022/09/12 03:04:58;;;;;;;;;;;;;;;;;;6211390;23;19912;-73
2022/09/12 03:07:23;;;;;;;;;;;;;;;;;;6209590;23;19923;-73
2022/09/12 03:09:49;;;;;;;;;;;;;;;;;;6211664;23;19918;-73
2022/09/12 03:12:14;;;;;;;;;;;;;;;;;;6183922;23;19920;-72
2022/09/12 03:14:40;;;;;;;;;;;;;;;;;;6211491;23;19966;-77
2022/09/12 03:17:05;;;;;;;;;;;;;;;;;;6185046;23;20103;-73
2022/09/12 03:19:31;;;;;;;;;;;;;;;;;;6209798;23;19924;-74
2022/09/12 03:21:56;;;;;;;;;;;;;;;;;;6185153;23;19911;-73
2022/09/12 03:24:22;;;;;;;;;;;;;;;;;;6211094;23;19911;-73
2022/09/12 03:26:48;;;;;;;;;;;;;;;;;;6209484;23;20356;-73
2022/09/12 03:29:14;;;;;;;;;;;;;;;;;;6210405;23;20345;-74
2022/09/12 03:31:39;;;;;;;;;;;;;;;;;;6211741;23;19912;-74
2022/09/12 03:34:05;;;;;;;;;;;;;;;;;;6185086;23;20054;-74
2022/09/12 03:36:30;;;;;;;;;;;;;;;;;;6211390;23;19998;-74
2022/09/12 03:38:56;;;;;;;;;;;;;;;;;;6184754;23;19920;-73
2022/09/12 03:41:22;;;;;;;;;;;;;;;;;;6211136;23;20291;-74
2022/09/12 03:43:47;;;;;;;;;;;;;;;;;;6211292;23;19966;-73
2022/09/12 03:46:13;;;;;;;;;;;;;;;;;;6211158;23;19962;-74
2022/09/12 03:48:38;;;;;;;;;;;;;;;;;;6209840;23;19912;-72
2022/09/12 03:51:04;;;;;;;;;;;;;;;;;;6184902;23;20056;-73
2022/09/12 03:53:30;;;;;;;;;;;;;;;;;;6210014;23;20301;-73
2022/09/12 03:55:55;;;;;;;;;;;;;;;;;;6184427;23;19990;-74
2022/09/12 03:58:21;;;;;;;;;;;;;;;;;;6183622;23;19998;-73
2022/09/12 04:00:46;;;;;;;;;;;;;;;;;;6211216;23;20192;-73
2022/09/12 04:03:12;;;;;;;;;;;;;;;;;;6183632;23;19915;-74
2022/09/12 04:05:37;;;;;;;;;;;;;;;;;;6210730;23;19912;-74
2022/09/12 04:08:03;;;;;;;;;;;;;;;;;;6210730;23;20041;-73
2022/09/12 04:10:29;;;;;;;;;;;;;;;;;;6184140;23;19978;-73
2022/09/12 04:12:54;;;;;;;;;;;;;;;;;;6210681;23;19919;-74
2022/09/12 04:15:20;;;;;;;;;;;;;;;;;;6209815;23;19916;-74
2022/09/12 04:17:46;;;;;;;;;;;;;;;;;;6209519;23;19911;-73
2022/09/12 04:20:11;;;;;;;;;;;;;;;;;;6209195;23;19971;-72
2022/09/12 04:22:37;;;;;;;;;;;;;;;;;;6182997;23;19998;-73
2022/09/12 04:25:02;;;;;;;;;;;;;;;;;;6183704;23;19912;-72
2022/09/12 04:27:29;;;;;;;;;;;;;;;;;;6209511;23;19912;-73
2022/09/12 04:29:55;;;;;;;;;;;;;;;;;;6209589;23;19927;-72
2022/09/12 04:32:21;;;;;;;;;;;;;;;;;;6182630;23;19918;-73
2022/09/12 04:34:47;;;;;;;;;;;;;;;;;;6209592;23;19912;-72
2022/09/12 04:37:12;;;;;;;;;;;;;;;;;;6210240;23;20336;-73
2022/09/12 04:39:38;;;;;;;;;;;;;;;;;;6208231;23;19983;-73
2022/09/12 04:42:04;;;;;;;;;;;;;;;;;;6210752;23;19912;-73
2022/09/12 04:44:30;;;;;;;;;;;;;;;;;;6183273;23;19912;-73
2022/09/12 04:46:56;;;;;;;;;;;;;;;;;;6210845;23;19916;-72
2022/09/12 04:49:21;;;;;;;;;;;;;;;;;;6183903;23;19962;-72
2022/09/12 04:51:47;;;;;;;;;;;;;;;;;;6210557;23;19912;-73
2022/09/12 04:54:12;;;;;;;;;;;;;;;;;;6208831;23;19911;-73
2022/09/12 04:56:38;;;;;;;;;;;;;;;;;;6210406;23;19911;-72
2022/09/12 04:59:03;;;;;;;;;;;;;;;;;;6183536;23;20403;-71
2022/09/12 05:01:29;;;;;;;;;;;;;;;;;;6183876;23;19912;-73
2022/09/12 05:03:54;;;;;;;;;;;;;;;;;;6210470;23;19964;-72
2022/09/12 05:06:20;;;;;;;;;;;;;;;;;;6210289;23;19911;-72
2022/09/12 05:08:46;;;;;;;;;;;;;;;;;;6183739;23;20375;-72
2022/09/12 05:11:11;;;;;;;;;;;;;;;;;;6209175;23;19912;-72
2022/09/12 05:13:37;;;;;;;;;;;;;;;;;;6183809;23;19911;-72
2022/09/12 05:16:03;;;;;;;;;;;;;;;;;;6209111;23;19912;-72
2022/09/12 05:18:29;;;;;;;;;;;;;;;;;;6210209;23;19912;-72
2022/09/12 05:20:55;;;;;;;;;;;;;;;;;;6183740;23;19912;-78
2022/09/12 05:23:20;;;;;;;;;;;;;;;;;;6210307;23;19912;-78
2022/09/12 05:25:46;;;;;;;;;;;;;;;;;;6184079;23;19911;-78
2022/09/12 05:28:11;;;;;;;;;;;;;;;;;;6210724;23;19908;-79
2022/09/12 05:30:37;;;;;;;;;;;;;;;;;;6210674;23;19911;-78
2022/09/12 05:33:03;;;;;;;;;;;;;;;;;;6209328;23;19916;-80
2022/09/12 05:35:29;;;;;;;;;;;;;;;;;;6207451;23;19912;-79
2022/09/12 05:37:54;;;;;;;;;;;;;;;;;;6209580;23;20371;-78
2022/09/12 05:40:20;;;;;;;;;;;;;;;;;;6157529;23;19920;-78
2022/09/12 05:42:45;;;;;;;;;;;;;;;;;;6209352;23;19934;-78
2022/09/12 05:45:13;;;;;;;;;;;;;;;;;;6182569;23;19974;-78
2022/09/12 05:47:38;;;;;;;;;;;;;;;;;;6209266;23;19912;-79
2022/09/12 05:50:09;;;;;;;;;;;;;;;;;;6209098;23;20264;-79
2022/09/12 05:52:35;;;;;;;;;;;;;;;;;;6206819;23;19938;-80
2022/09/12 05:55:00;;;;;;;;;;;;;;;;;;6208020;23;19912;-79
2022/09/12 05:57:26;;;;;;;;;;;;;;;;;;6182190;23;19934;-79
2022/09/12 05:59:52;;;;;;;;;;;;;;;;;;6209776;23;19920;-80
2022/09/12 06:02:18;;;;;;;;;;;;;;;;;;6214463;23;19955;-81
2022/09/12 06:04:44;;;;;;;;;;;;;;;;;;6190064;23;19916;-81
2022/09/12 06:07:10;;;;;;;;;;;;;;;;;;6209203;23;19922;-78
2022/09/12 06:09:36;;;;;;;;;;;;;;;;;;6182670;23;19912;-78
2022/09/12 06:12:01;;;;;;;;;;;;;;;;;;6209453;23;19918;-79
2022/09/12 06:14:27;;;;;;;;;;;;;;;;;;6209442;23;19958;-77
2022/09/12 06:16:53;;;;;;;;;;;;;;;;;;6184551;23;19920;-77
2022/09/12 06:19:18;;;;;;;;;;;;;;;;;;6226823;23;19920;-79
2022/09/12 06:21:44;;;;;;;;;;;;;;;;;;6137013;23;19912;-78
2022/09/12 06:24:10;;;;;;;;;;;;;;;;;;6183120;23;19919;-77
2022/09/12 06:26:35;;;;;;;;;;;;;;;;;;6209681;23;19912;-77
2022/09/12 06:29:01;;;;;;;;;;;;;;;;;;6188258;23;19919;-80
2022/09/12 06:31:28;;;;;;;;;;;;;;;;;;6207900;23;19916;-77
2022/09/12 06:33:53;;;;;;;;;;;;;;;;;;6208586;23;19939;-76
2022/09/12 06:36:20;;;;;;;;;;;;;;;;;;6218694;23;19911;-75
2022/09/12 06:38:46;;;;;;;;;;;;;;;;;;6227220;23;19896;-80
2022/09/12 06:41:12;;;;;;;;;;;;;;;;;;6227293;23;19912;-79
2022/09/12 06:43:38;;;;;;;;;;;;;;;;;;6187520;23;20359;-79
2022/09/12 06:46:03;;;;;;;;;;;;;;;;;;6212759;23;20403;-77
2022/09/12 06:48:28;;;;;;;;;;;;;;;;;;6210765;23;20375;-78
2022/09/12 06:50:54;;;;;;;;;;;;;;;;;;6214132;23;19912;-82
2022/09/12 06:53:20;;;;;;;;;;;;;;;;;;6213713;23;20352;-79
2022/09/12 06:55:47;;;;;;;;;;;;;;;;;;6238165;23;20010;-79
2022/09/12 06:58:12;;;;;;;;;;;;;;;;;;6214318;23;19912;-81
2022/09/12 07:00:38;;;;;;;;;;;;;;;;;;6237840;23;19981;-80
2022/09/12 07:03:04;;;;;;;;;;;;;;;;;;6211868;23;19916;-82
2022/09/12 07:05:30;;;;;;;;;;;;;;;;;;6239407;23;20352;-84
2022/09/12 07:07:56;;;;;;;;;;;;;;;;;;6213535;23;19916;-83
2022/09/12 07:10:21;;;;;;;;;;;;;;;;;;6187306;23;19912;-81
2022/09/12 07:12:47;;;;;;;;;;;;;;;;;;6213503;23;19911;-82
2022/09/12 07:15:12;;;;;;;;;;;;;;;;;;6213098;23;19912;-82
2022/09/12 07:17:38;;;;;;;;;;;;;;;;;;6215124;23;19911;-80
2022/09/12 07:20:03;;;;;;;;;;;;;;;;;;6212693;23;19924;-81
2022/09/12 07:22:29;;;;;;;;;;;;;;;;;;6222225;23;20329;-82
2022/09/12 07:24:56;;;;;;;;;;;;;;;;;;6222371;23;19938;-82
2022/09/12 07:27:22;;;;;;;;;;;;;;;;;;6212465;23;19916;-83
2022/09/12 07:29:47;;;;;;;;;;;;;;;;;;6213921;23;19927;-79
2022/09/12 07:32:13;;;;;;;;;;;;;;;;;;6188811;23;19916;-83
2022/09/12 07:34:40;;;;;;;;;;;;;;;;;;6204879;23;19902;-83
2022/09/12 07:37:06;;;;;;;;;;;;;;;;;;6227833;23;19911;-82
2022/09/12 07:39:31;;;;;;;;;;;;;;;;;;6232356;23;19927;-81
2022/09/12 07:41:58;;;;;;;;;;;;;;;;;;6232680;23;19912;-84
2022/09/12 07:44:24;;;;;;;;;;;;;;;;;;6231530;23;19939;-83
2022/09/12 07:46:49;;;;;;;;;;;;;;;;;;6232622;23;19912;-83
2022/09/12 07:49:15;;;;;;;;;;;;;;;;;;6231844;23;19920;-84
2022/09/12 07:51:41;;;;;;;;;;;;;;;;;;6229391;23;19912;-84
2022/09/12 07:54:06;;;;;;;;;;;;;;;;;;6229527;23;19935;-83
2022/09/12 07:56:32;;;;;;;;;;;;;;;;;;6228352;23;19923;-84
2022/09/12 07:58:58;;;;;;;;;;;;;;;;;;6200163;23;19920;-83
2022/09/12 08:01:23;;;;;;;;;;;;;;;;;;6225293;23;19927;-83
2022/09/12 08:03:49;;;;;;;;;;;;;;;;;;6214818;23;19919;-82
2022/09/12 08:06:15;;;;;;;;;;;;;;;;;;6214711;23;19916;-80
2022/09/12 08:08:40;;;;;;;;;;;;;;;;;;6210105;23;19912;-79
2022/09/12 08:11:06;;;;;;;;;;;;;;;;;;6185666;23;19916;-78
2022/09/12 08:13:31;;;;;;;;;;;;;;;;;;6210930;23;19912;-82
2022/09/12 08:15:58;;;;;;;;;;;;;;;;;;6188287;23;20345;-79
2022/09/12 08:18:24;;;;;;;;;;;;;;;;;;6223749;23;19916;-79
2022/09/12 08:20:49;;;;;;;;;;;;;;;;;;6225378;23;19943;-82
2022/09/12 08:23:16;;;;;;;;;;;;;;;;;;6218426;23;19980;-84
2022/09/12 08:25:42;;;;;;;;;;;;;;;;;;6196233;23;19911;-81
2022/09/12 08:28:08;;;;;;;;;;;;;;;;;;6214993;23;19943;-82
2022/09/12 08:30:33;;;;;;;;;;;;;;;;;;6221829;23;19923;-83
2022/09/12 08:32:59;;;;;;;;;;;;;;;;;;6215179;23;19916;-82
2022/09/12 08:35:24;;;;;;;;;;;;;;;;;;6213666;23;19912;-83
2022/09/12 08:37:50;;;;;;;;;;;;;;;;;;6226399;23;19916;-84
2022/09/12 08:40:15;;;;;;;;;;;;;;;;;;6211008;23;19924;-82
2022/09/12 08:42:41;;;;;;;;;;;;;;;;;;6219237;23;19934;-82
2022/09/12 08:45:06;;;;;;;;;;;;;;;;;;6213892;23;19912;-80
2022/09/12 08:47:32;;;;;;;;;;;;;;;;;;6214027;23;19912;-80
2022/09/12 08:49:58;;;;;;;;;;;;;;;;;;6212061;23;19912;-79
2022/09/12 08:52:23;;;;;;;;;;;;;;;;;;6208772;23;20003;-82
2022/09/12 08:54:49;;;;;;;;;;;;;;;;;;6236672;23;19912;-79
2022/09/12 08:57:15;;;;;;;;;;;;;;;;;;6211490;23;20002;-80
2022/09/12 08:59:40;;;;;;;;;;;;;;;;;;6210637;23;19920;-80
2022/09/12 09:02:06;;;;;;;;;;;;;;;;;;6211802;23;19912;-79
2022/09/12 09:04:32;;;;;;;;;;;;;;;;;;6212338;23;19994;-87
2022/09/12 09:06:58;;;;;;;;;;;;;;;;;;6208612;23;19912;-80
2022/09/12 09:09:23;;;;;;;;;;;;;;;;;;6217955;23;19951;-83
2022/09/12 09:11:49;;;;;;;;;;;;;;;;;;6218749;23;20296;-81
2022/09/12 09:16:58;;;;;;;;;;;;;;;;;;6221440;23;19912;-83
2022/09/12 09:19:24;;;;;;;;;;;;;;;;;;6226349;23;19928;-84
2022/09/12 09:21:50;;;;;;;;;;;;;;;;;;6166679;23;19908;-90
2022/09/12 09:24:16;;;;;;;;;;;;;;;;;;6249292;22;19923;-81
2022/09/12 09:26:41;;;;;;;;;;;;;;;;;;6244210;22;19923;-80
2022/09/12 09:29:07;;;;;;;;;;;;;;;;;;6271388;22;19911;-79
2022/09/12 09:31:33;;;;;;;;;;;;;;;;;;6259796;22;19922;-82
2022/09/12 09:33:59;;;;;;;;;;;;;;;;;;6285655;22;19931;-83
2022/09/12 09:36:24;;;;;;;;;;;;;;;;;;6297148;22;19911;-86
2022/09/12 09:38:50;;;;;;;;;;;;;;;;;;6265237;22;19918;-83
2022/09/12 09:41:16;;;;;;;;;;;;;;;;;;6300767;22;19923;-84
2022/09/12 09:43:42;;;;;;;;;;;;;;;;;;6254155;22;20435;-80
2022/09/12 09:46:08;;;;;;;;;;;;;;;;;;6213848;23;20444;-79
2022/09/12 09:48:33;;;;;;;;;;;;;;;;;;6240551;23;20267;-80
2022/09/12 09:50:59;;;;;;;;;;;;;;;;;;6214150;23;19947;-80
2022/09/12 09:53:25;;;;;;;;;;;;;;;;;;6240445;23;19935;-79
2022/09/12 09:55:50;;;;;;;;;;;;;;;;;;6240540;23;19912;-79
2022/09/12 09:58:16;;;;;;;;;;;;;;;;;;6213920;23;19911;-79
2022/09/12 10:00:41;;;;;;;;;;;;;;;;;;6240450;23;20031;-79
2022/09/12 10:03:07;;;;;;;;;;;;;;;;;;6214177;23;19937;-79
2022/09/12 10:05:33;;;;;;;;;;;;;;;;;;6224346;22;19907;-86
2022/09/12 10:07:59;;;;;;;;;;;;;;;;;;6224518;23;19932;-88
2022/09/12 10:10:24;;;;;;;;;;;;;;;;;;6210659;23;20305;-85
2022/09/12 10:12:50;;;;;;;;;;;;;;;;;;6205602;23;19916;-80
2022/09/12 10:15:17;;;;;;;;;;;;;;;;;;6194661;23;20367;-84
2022/09/12 10:17:42;;;;;;;;;;;;;;;;;;6181320;23;19927;-82
2022/09/12 10:20:08;;;;;;;;;;;;;;;;;;6220751;23;19928;-83
2022/09/12 10:22:33;;;;;;;;;;;;;;;;;;6215496;23;19912;-87
2022/09/12 10:24:59;;;;;;;;;;;;;;;;;;6208413;23;19916;-85
2022/09/12 10:27:24;;;;;;;;;;;;;;;;;;6207222;23;19904;-88
2022/09/12 10:29:50;;;;;;;;;;;;;;;;;;6211019;23;19917;-88
2022/09/12 10:32:16;;;;;;;;;;;;;;;;;;6207498;23;19911;-83
2022/09/12 10:34:42;;;;;;;;;;;;;;;;;;6226080;22;19944;-85
2022/09/12 10:37:07;;;;;;;;;;;;;;;;;;6197568;23;19912;-80
2022/09/12 10:39:33;;;;;;;;;;;;;;;;;;6216282;23;20403;-82
2022/09/12 10:41:59;;;;;;;;;;;;;;;;;;6244883;23;19982;-81
2022/09/12 10:44:28;;;;;;;;;;;;;;;;;;6223380;23;19912;-83
2022/09/12 10:46:54;;;;;;;;;;;;;;;;;;6243067;23;20401;-79
2022/09/12 10:49:23;;;;;;;;;;;;;;;;;;6243927;23;19973;-80
2022/09/12 10:51:48;;;;;;;;;;;;;;;;;;6245867;23;20363;-85
2022/09/12 10:54:14;;;;;;;;;;;;;;;;;;6248817;23;19919;-82
2022/09/12 10:56:40;;;;;;;;;;;;;;;;;;6244420;23;19912;-78
2022/09/12 10:59:06;;;;;;;;;;;;;;;;;;6221664;23;19923;-83
2022/09/12 11:01:35;;;;;;;;;;;;;;;;;;6235590;23;19911;-85
2022/09/12 11:04:00;;;;;;;;;;;;;;;;;;6234776;23;19911;-81
2022/09/12 11:06:26;;;;;;;;;;;;;;;;;;6242879;23;19938;-77
2022/09/12 11:08:52;;;;;;;;;;;;;;;;;;6241442;22;20360;-73
2022/09/12 11:11:18;;;;;;;;;;;;;;;;;;6239502;23;19950;-74
2022/09/12 11:13:44;;;;;;;;;;;;;;;;;;6241301;23;19912;-75
2022/09/12 11:16:09;;;;;;;;;;;;;;;;;;6214484;23;19911;-74
2022/09/12 11:18:36;;;;;;;;;;;;;;;;;;6237819;23;19916;-72
2022/09/12 11:21:02;;;;;;;;;;;;;;;;;;6239037;23;20256;-72
2022/09/12 11:23:27;;;;;;;;;;;;;;;;;;6239079;23;19958;-72
2022/09/12 11:25:53;;;;;;;;;;;;;;;;;;6213138;23;19911;-72
2022/09/12 11:28:18;;;;;;;;;;;;;;;;;;6239968;23;19915;-71
2022/09/12 11:30:44;;;;;;;;;;;;;;;;;;6240240;23;19999;-72
2022/09/12 11:33:10;;;;;;;;;;;;;;;;;;6240377;23;19919;-71
2022/09/12 11:35:35;;;;;;;;;;;;;;;;;;6240326;23;19994;-72
2022/09/12 11:38:01;;;;;;;;;;;;;;;;;;6240909;23;20034;-70
2022/09/12 11:40:27;;;;;;;;;;;;;;;;;;6240181;23;19942;-70
2022/09/12 11:42:52;;;;;;;;;;;;;;;;;;6239172;23;20352;-72
2022/09/12 11:45:18;;;;;;;;;;;;;;;;;;6240248;23;19911;-72
2022/09/12 11:47:44;;;;;;;;;;;;;;;;;;6240476;23;20277;-72
2022/09/12 11:50:09;;;;;;;;;;;;;;;;;;6213968;23;19982;-72
2022/09/12 11:52:35;;;;;;;;;;;;;;;;;;6240424;23;19931;-71
2022/09/12 11:55:00;;;;;;;;;;;;;;;;;;6240445;23;19911;-71
2022/09/12 11:57:27;;;;;;;;;;;;;;;;;;6240774;23;20255;-72
2022/09/12 11:59:52;;;;;;;;;;;;;;;;;;6240672;23;20236;-72
2022/09/12 12:02:18;;;;;;;;;;;;;;;;;;6240521;23;19911;-72
2022/09/12 12:04:44;;;;;;;;;;;;;;;;;;6240117;23;20450;-71
2022/09/12 12:07:10;;;;;;;;;;;;;;;;;;6213872;23;19919;-71
2022/09/12 12:09:36;;;;;;;;;;;;;;;;;;6239907;22;20181;-72
2022/09/12 12:12:01;;;;;;;;;;;;;;;;;;6240873;23;19911;-71
2022/09/12 12:14:27;;;;;;;;;;;;;;;;;;6241618;23;19946;-71
2022/09/12 12:16:53;;;;;;;;;;;;;;;;;;6214673;23;19922;-71
2022/09/12 12:19:18;;;;;;;;;;;;;;;;;;6214955;23;19926;-72
2022/09/12 12:21:44;;;;;;;;;;;;;;;;;;6241188;23;19908;-72
2022/09/12 12:24:09;;;;;;;;;;;;;;;;;;6241492;23;19911;-72
2022/09/12 12:26:35;;;;;;;;;;;;;;;;;;6241099;23;19998;-71
2022/09/12 12:29:00;;;;;;;;;;;;;;;;;;6214448;23;19911;-72
2022/09/12 12:31:26;;;;;;;;;;;;;;;;;;6241291;23;19915;-72
2022/09/12 12:33:52;;;;;;;;;;;;;;;;;;6240756;23;19920;-72
2022/09/12 12:36:17;;;;;;;;;;;;;;;;;;6214514;23;19911;-71
2022/09/12 12:38:43;;;;;;;;;;;;;;;;;;6214097;23;19912;-71
2022/09/12 12:41:09;;;;;;;;;;;;;;;;;;6214409;23;19962;-70
2022/09/12 12:43:35;;;;;;;;;;;;;;;;;;6241276;23;19958;-71
2022/09/12 12:46:00;;;;;;;;;;;;;;;;;;6241216;23;19911;-72
2022/09/12 12:48:26;;;;;;;;;;;;;;;;;;6241416;23;19990;-71
2022/09/12 12:50:52;;;;;;;;;;;;;;;;;;6235039;23;19919;-71
2022/09/12 12:53:18;;;;;;;;;;;;;;;;;;6240841;23;19912;-71
2022/09/12 12:55:44;;;;;;;;;;;;;;;;;;6240872;23;19919;-72
2022/09/12 12:58:09;;;;;;;;;;;;;;;;;;6241163;23;19912;-72
2022/09/12 13:00:35;;;;;;;;;;;;;;;;;;6240631;23;19927;-71
2022/09/12 13:03:00;;;;;;;;;;;;;;;;;;6240564;23;19958;-71
2022/09/12 13:05:26;;;;;;;;;;;;;;;;;;6240509;23;19922;-72
2022/09/12 13:07:52;;;;;;;;;;;;;;;;;;6214157;23;20298;-71
2022/09/12 13:10:18;;;;;;;;;;;;;;;;;;6240966;22;20389;-72
2022/09/12 13:12:43;;;;;;;;;;;;;;;;;;6240836;23;19911;-71
2022/09/12 13:15:09;;;;;;;;;;;;;;;;;;6240742;23;20257;-72
2022/09/12 13:17:34;;;;;;;;;;;;;;;;;;6240416;23;19919;-73
2022/09/12 13:20:00;;;;;;;;;;;;;;;;;;6241054;23;19926;-72
2022/09/12 13:22:26;;;;;;;;;;;;;;;;;;6241040;23;19916;-71
2022/09/12 13:24:51;;;;;;;;;;;;;;;;;;6236971;23;19919;-72
2022/09/12 13:27:17;;;;;;;;;;;;;;;;;;6241386;23;19919;-73
2022/09/12 13:29:42;;;;;;;;;;;;;;;;;;6216371;23;19975;-72
2022/09/12 13:32:08;;;;;;;;;;;;;;;;;;6242959;23;19918;-74
2022/09/12 13:34:34;;;;;;;;;;;;;;;;;;6240754;23;19926;-73
2022/09/12 13:36:59;;;;;;;;;;;;;;;;;;6213242;23;20003;-73
2022/09/12 13:39:25;;;;;;;;;;;;;;;;;;6240052;23;19927;-74
2022/09/12 13:41:50;;;;;;;;;;;;;;;;;;6239843;23;19911;-73
2022/09/12 13:44:16;;;;;;;;;;;;;;;;;;6241251;23;20539;-73
2022/09/12 13:46:41;;;;;;;;;;;;;;;;;;6240447;23;19991;-72
2022/09/12 13:49:08;;;;;;;;;;;;;;;;;;6243014;23;19994;-72
2022/09/12 13:51:33;;;;;;;;;;;;;;;;;;6241727;23;19912;-71
2022/09/12 13:53:59;;;;;;;;;;;;;;;;;;6242067;23;19919;-74
2022/09/12 13:56:25;;;;;;;;;;;;;;;;;;6241836;23;19917;-74
2022/09/12 13:58:50;;;;;;;;;;;;;;;;;;6214875;23;19919;-73
2022/09/12 14:01:16;;;;;;;;;;;;;;;;;;6241968;23;20041;-73
2022/09/12 14:06:26;;;;;;;;;;;;;;;;;;6241760;23;19911;-72
2022/09/12 14:08:52;;;;;;;;;;;;;;;;;;6241889;22;20058;-75
2022/09/12 14:11:17;;;;;;;;;;;;;;;;;;6240911;23;19911;-73
2022/09/12 14:13:43;;;;;;;;;;;;;;;;;;6241388;23;19912;-73
2022/09/12 14:16:10;;;;;;;;;;;;;;;;;;6242222;23;19949;-71
2022/09/12 14:18:35;;;;;;;;;;;;;;;;;;6239831;23;19966;-72
2022/09/12 14:21:02;;;;;;;;;;;;;;;;;;6241329;23;19923;-73
2022/09/12 14:23:27;;;;;;;;;;;;;;;;;;6243313;23;19919;-73
2022/09/12 14:25:55;;;;;;;;;;;;;;;;;;6241999;23;19912;-74
2022/09/12 14:28:20;;;;;;;;;;;;;;;;;;6214722;23;19911;-73
2022/09/12 14:30:47;;;;;;;;;;;;;;;;;;6240751;23;20062;-72
2022/09/12 14:33:13;;;;;;;;;;;;;;;;;;6215059;23;19911;-73
2022/09/12 14:35:38;;;;;;;;;;;;;;;;;;6241136;23;19939;-72
2022/09/12 14:38:04;;;;;;;;;;;;;;;;;;6241271;23;19915;-73
2022/09/12 14:40:30;;;;;;;;;;;;;;;;;;6241097;23;19989;-74
2022/09/12 14:42:56;;;;;;;;;;;;;;;;;;6241219;23;19918;-74
2022/09/12 14:45:21;;;;;;;;;;;;;;;;;;6241374;23;19911;-73
2022/09/12 14:47:47;;;;;;;;;;;;;;;;;;6241369;23;20287;-73
2022/09/12 14:50:12;;;;;;;;;;;;;;;;;;6239574;23;19918;-74
2022/09/12 14:52:38;;;;;;;;;;;;;;;;;;6239716;23;19911;-73
2022/09/12 14:55:04;;;;;;;;;;;;;;;;;;6239302;23;19919;-72
2022/09/12 14:57:30;;;;;;;;;;;;;;;;;;6214274;23;20182;-73
2022/09/12 14:59:55;;;;;;;;;;;;;;;;;;6164459;23;19919;-73
2022/09/12 15:02:21;;;;;;;;;;;;;;;;;;6241143;23;19919;-73
2022/09/12 15:04:47;;;;;;;;;;;;;;;;;;6241538;23;19954;-74
2022/09/12 15:07:13;;;;;;;;;;;;;;;;;;6214575;23;19915;-72
2022/09/12 15:09:39;;;;;;;;;;;;;;;;;;6240091;22;19919;-73
2022/09/12 15:12:04;;;;;;;;;;;;;;;;;;6239701;23;19912;-72
2022/09/12 15:14:31;;;;;;;;;;;;;;;;;;6241686;23;19911;-72
2022/09/12 15:16:56;;;;;;;;;;;;;;;;;;6213982;23;20443;-72
2022/09/12 15:19:22;;;;;;;;;;;;;;;;;;6213871;23;20074;-72
2022/09/12 15:21:47;;;;;;;;;;;;;;;;;;6240382;23;19919;-73
2022/09/12 15:24:13;;;;;;;;;;;;;;;;;;6242154;23;19911;-73
2022/09/12 15:26:39;;;;;;;;;;;;;;;;;;6241374;23;19954;-72
2022/09/12 15:29:04;;;;;;;;;;;;;;;;;;6242187;23;19911;-73
2022/09/12 15:31:30;;;;;;;;;;;;;;;;;;6241803;23;20415;-72
2022/09/12 15:33:56;;;;;;;;;;;;;;;;;;6241082;23;19927;-72
2022/09/12 15:36:22;;;;;;;;;;;;;;;;;;6214882;23;19912;-72
2022/09/12 15:38:48;;;;;;;;;;;;;;;;;;6215355;23;19911;-72
2022/09/12 15:41:13;;;;;;;;;;;;;;;;;;6237782;23;20362;-72
2022/09/12 15:43:39;;;;;;;;;;;;;;;;;;6241533;23;19920;-72
2022/09/12 15:46:05;;;;;;;;;;;;;;;;;;6241104;23;20340;-73
2022/09/12 15:48:31;;;;;;;;;;;;;;;;;;6241431;23;20348;-73
2022/09/12 15:51:00;;;;;;;;;;;;;;;;;;6237470;23;19922;-74
2022/09/12 15:53:25;;;;;;;;;;;;;;;;;;6240486;23;19965;-73
2022/09/12 15:55:51;;;;;;;;;;;;;;;;;;6239264;23;19911;-73
2022/09/12 15:58:16;;;;;;;;;;;;;;;;;;6240998;23;19916;-73
2022/09/12 16:00:42;;;;;;;;;;;;;;;;;;6240174;23;19920;-71
2022/09/12 16:03:08;;;;;;;;;;;;;;;;;;6241049;23;20465;-73
2022/09/12 16:05:34;;;;;;;;;;;;;;;;;;6240688;23;19912;-74
2022/09/12 16:07:59;;;;;;;;;;;;;;;;;;6240219;23;19911;-74
2022/09/12 16:10:25;;;;;;;;;;;;;;;;;;6240532;22;20316;-74
2022/09/12 16:12:51;;;;;;;;;;;;;;;;;;6240540;23;20248;-74
2022/09/12 16:15:17;;;;;;;;;;;;;;;;;;6240542;23;19915;-73
2022/09/12 16:17:42;;;;;;;;;;;;;;;;;;6239051;23;19911;-72
2022/09/12 16:20:08;;;;;;;;;;;;;;;;;;6199767;23;19915;-86
2022/09/12 16:22:33;;;;;;;;;;;;;;;;;;6258653;23;20277;-83
2022/09/12 16:24:59;;;;;;;;;;;;;;;;;;6259033;22;20006;-84
2022/09/12 16:27:24;;;;;;;;;;;;;;;;;;6258173;23;19917;-84
2022/09/12 16:29:50;;;;;;;;;;;;;;;;;;6231548;23;20237;-83
2022/09/12 16:32:16;;;;;;;;;;;;;;;;;;6265023;22;19930;-86
2022/09/12 16:34:42;;;;;;;;;;;;;;;;;;6235020;23;19920;-85
2022/09/12 16:37:08;;;;;;;;;;;;;;;;;;6237503;23;19911;-83
2022/09/12 16:39:33;;;;;;;;;;;;;;;;;;6248759;23;19919;-81